Terminal Aerodrome Forecast
Issued by NWS Charleston, WV

Current Version | Previous Version | Text Only | Print | Product List | Glossary Off
Versions: 1 2 3 4 5 6 7 8 9 10 11 12 13 14 15 16 17 18 19 20 21 22 23

282
FTUS41 KRLX 230359 AAB
TAFHTS
TAF AMD
KHTS 230359Z 2304/2324 25003KT 5SM -SHRA VCTS BKN050CB
      TEMPO 2304/2306 33015G25KT 2SM TSRA BKN035CB
     FM231200 24007KT P6SM SCT025 BKN050=

USA.gov is the U.S. government's official web portal to all federal, state and local government web resources and services.